createdAt,value
2023-03-29T00:01:34.884Z,6.41
2023-03-29T00:04:06.158Z,6.49
2023-03-29T00:06:33.793Z,6.55
2023-03-29T00:09:00.928Z,6.45
2023-03-29T00:11:27.658Z,6.45
2023-03-29T00:13:54.433Z,6.49
2023-03-29T00:16:21.001Z,6.62
2023-03-29T00:18:47.740Z,6.57
2023-03-29T00:21:14.844Z,6.51
2023-03-29T00:23:41.363Z,6.40
2023-03-29T00:26:08.230Z,6.46
2023-03-29T00:28:35.260Z,6.33
2023-03-29T00:31:10.726Z,6.23
2023-03-29T00:33:37.355Z,6.35
2023-03-29T00:36:05.196Z,6.39
2023-03-29T00:38:32.053Z,6.34
2023-03-29T00:40:59.337Z,6.45
2023-03-29T00:43:26.292Z,6.37
2023-03-29T00:45:52.886Z,6.36
2023-03-29T00:48:26.392Z,6.28
2023-03-29T00:51:03.937Z,6.34
2023-03-29T00:53:35.414Z,6.21
2023-03-29T00:56:07.456Z,6.17
2023-03-29T00:58:42.769Z,6.18
2023-03-29T01:01:15.827Z,6.23
2023-03-29T01:03:49.232Z,6.21
2023-03-29T01:06:19.058Z,6.25
2023-03-29T01:08:56.304Z,6.23
2023-03-29T01:11:27.831Z,6.24
2023-03-29T01:14:02.899Z,6.33
2023-03-29T01:16:32.447Z,6.28
2023-03-29T01:18:59.872Z,6.25
2023-03-29T01:21:50.488Z,6.28
2023-03-29T01:24:51.647Z,6.17
2023-03-29T01:27:31.428Z,6.12
2023-03-29T01:30:06.354Z,6.09
2023-03-29T01:32:52.525Z,6.11
2023-03-29T01:35:35.520Z,6.05
2023-03-29T01:38:05.691Z,5.96
2023-03-29T01:40:33.142Z,5.96
2023-03-29T01:43:30.792Z,5.92
2023-03-29T01:46:07.360Z,5.89
2023-03-29T01:48:56.891Z,6.02
2023-03-29T01:51:37.335Z,5.91
2023-03-29T01:54:12.837Z,5.88
2023-03-29T01:56:43.447Z,5.68
2023-03-29T01:59:17.265Z,5.68
2023-03-29T02:01:49.619Z,5.70
2023-03-29T02:04:26.648Z,5.69
2023-03-29T02:06:55.804Z,5.63
2023-03-29T02:09:23.378Z,5.63
2023-03-29T02:11:52.741Z,5.65
2023-03-29T02:14:19.451Z,5.61
2023-03-29T02:16:45.988Z,5.71
2023-03-29T02:19:13.447Z,5.87
2023-03-29T02:21:47.600Z,5.83
2023-03-29T02:24:17.766Z,5.81
2023-03-29T02:26:44.470Z,5.86
2023-03-29T02:29:11.144Z,5.90
2023-03-29T02:31:40.666Z,5.86
2023-03-29T02:34:30.794Z,5.93
2023-03-29T02:37:11.204Z,5.88
2023-03-29T02:39:39.404Z,5.91
2023-03-29T02:42:07.120Z,5.86
2023-03-29T02:44:38.145Z,5.84
2023-03-29T02:47:33.132Z,5.82
2023-03-29T02:50:00.363Z,5.76
2023-03-29T02:52:33.968Z,5.80
2023-03-29T02:55:03.863Z,5.69
2023-03-29T02:57:30.341Z,5.70
2023-03-29T02:59:57.966Z,5.72
2023-03-29T03:02:24.763Z,5.73
2023-03-29T03:04:51.987Z,5.76
2023-03-29T03:07:18.449Z,5.87
2023-03-29T03:09:44.975Z,5.97
2023-03-29T03:12:11.436Z,6.08
2023-03-29T03:14:38.144Z,6.13
2023-03-29T03:17:05.051Z,6.09
2023-03-29T03:19:31.556Z,6.08
2023-03-29T03:21:58.104Z,6.15
2023-03-29T03:24:24.679Z,6.15
2023-03-29T03:26:51.169Z,6.15
2023-03-29T03:29:17.618Z,6.15
2023-03-29T03:31:44.223Z,6.19
2023-03-29T03:36:37.746Z,6.39
2023-03-29T03:39:04.778Z,6.29
2023-03-29T03:41:31.600Z,6.28
2023-03-29T03:43:58.534Z,6.17
2023-03-29T03:46:25.573Z,5.91
2023-03-29T03:48:53.189Z,5.84
2023-03-29T03:51:19.668Z,5.78
2023-03-29T03:53:46.184Z,5.77
2023-03-29T03:56:12.969Z,5.64
2023-03-29T03:58:39.645Z,5.52
2023-03-29T04:01:06.752Z,5.46
2023-03-29T04:03:33.310Z,5.50
2023-03-29T04:06:02.078Z,5.49
2023-03-29T04:08:28.758Z,5.35
2023-03-29T04:10:56.858Z,5.36
2023-03-29T04:13:23.793Z,5.38
2023-03-29T04:15:50.534Z,5.36
2023-03-29T04:18:17.455Z,5.39
2023-03-29T04:20:44.398Z,5.34
2023-03-29T04:23:11.605Z,5.38
2023-03-29T04:25:38.773Z,5.39
2023-03-29T04:28:06.789Z,5.45
2023-03-29T04:30:33.804Z,5.46
2023-03-29T04:33:00.478Z,5.54
2023-03-29T04:35:27.106Z,5.55
2023-03-29T04:37:53.959Z,5.48
2023-03-29T04:40:20.818Z,5.52
2023-03-29T04:42:49.609Z,5.54
2023-03-29T04:45:16.462Z,5.62
2023-03-29T04:47:42.973Z,5.63
2023-03-29T04:50:10.065Z,5.64
2023-03-29T04:52:36.829Z,5.73
2023-03-29T04:55:04.989Z,5.69
2023-03-29T04:57:31.577Z,5.73
2023-03-29T04:59:58.072Z,5.66
2023-03-29T05:02:24.623Z,5.72
2023-03-29T05:04:51.197Z,5.75
2023-03-29T05:07:17.780Z,5.66
2023-03-29T05:09:44.289Z,5.64
2023-03-29T05:12:11.022Z,5.70
2023-03-29T05:14:37.570Z,5.60
2023-03-29T05:17:04.093Z,5.63
2023-03-29T05:19:30.586Z,5.56
2023-03-29T05:21:57.146Z,5.57
2023-03-29T05:24:23.710Z,5.61
2023-03-29T05:26:50.209Z,5.62
2023-03-29T05:29:16.692Z,5.63
2023-03-29T05:31:43.226Z,5.61
2023-03-29T05:34:10.016Z,5.58
2023-03-29T05:36:36.692Z,5.54
2023-03-29T05:39:03.308Z,5.60
2023-03-29T05:41:29.755Z,5.68
2023-03-29T05:43:56.364Z,5.63
2023-03-29T05:46:23.073Z,5.62
2023-03-29T05:48:49.564Z,5.62
2023-03-29T05:51:16.094Z,5.53
2023-03-29T05:53:42.581Z,5.66
2023-03-29T05:56:09.201Z,5.63
2023-03-29T05:58:35.798Z,5.60
2023-03-29T06:01:02.358Z,5.56
2023-03-29T06:03:29.115Z,5.54
2023-03-29T06:06:01.486Z,5.54
2023-03-29T06:08:28.646Z,5.56
2023-03-29T06:11:06.584Z,5.51
2023-03-29T06:13:33.810Z,5.42
2023-03-29T06:16:01.317Z,5.42
2023-03-29T06:18:28.261Z,5.40
2023-03-29T06:20:54.759Z,5.39
2023-03-29T06:23:22.628Z,5.41
2023-03-29T06:25:49.833Z,5.37
2023-03-29T06:28:16.982Z,5.35
2023-03-29T06:30:44.037Z,5.33
2023-03-29T06:33:11.009Z,5.29
2023-03-29T06:35:41.807Z,5.40
2023-03-29T06:38:08.807Z,5.35
2023-03-29T06:40:35.900Z,5.49
2023-03-29T06:43:02.428Z,5.48
2023-03-29T06:45:32.092Z,5.50
2023-03-29T06:47:59.199Z,5.55
2023-03-29T06:50:25.877Z,5.50
2023-03-29T06:52:52.631Z,5.54
2023-03-29T06:55:19.707Z,5.61
2023-03-29T06:57:49.727Z,5.61
2023-03-29T07:00:17.283Z,5.65
2023-03-29T07:02:48.073Z,5.83
2023-03-29T07:05:15.232Z,5.83
2023-03-29T07:07:49.007Z,5.75
2023-03-29T07:10:15.709Z,5.76
2023-03-29T07:12:42.204Z,5.80
2023-03-29T07:15:09.078Z,5.88
2023-03-29T07:17:36.668Z,5.91
2023-03-29T07:20:03.186Z,5.96
2023-03-29T07:22:29.698Z,6.01
2023-03-29T07:24:56.154Z,5.96
2023-03-29T07:27:22.662Z,5.91
2023-03-29T07:29:49.202Z,6.02
2023-03-29T07:32:15.780Z,5.95
2023-03-29T07:34:42.657Z,6.00
2023-03-29T07:37:09.227Z,6.01
2023-03-29T07:39:35.721Z,6.00
2023-03-29T07:42:02.317Z,6.07
2023-03-29T07:44:28.913Z,6.14
2023-03-29T07:46:55.474Z,6.12
2023-03-29T07:49:22.253Z,5.99
2023-03-29T07:51:49.042Z,6.11
2023-03-29T07:54:15.570Z,6.06
2023-03-29T07:56:42.132Z,6.16
2023-03-29T07:59:08.703Z,6.07
2023-03-29T08:01:35.184Z,6.11
2023-03-29T08:04:01.768Z,6.19
2023-03-29T08:06:28.352Z,6.15
2023-03-29T08:08:54.880Z,6.24
2023-03-29T08:11:21.585Z,6.28
2023-03-29T08:13:48.179Z,6.21
2023-03-29T08:16:15.053Z,6.20
2023-03-29T08:18:41.655Z,6.19
2023-03-29T08:21:08.326Z,6.19
2023-03-29T08:23:35.122Z,6.16
2023-03-29T08:26:01.638Z,6.21
2023-03-29T08:28:28.209Z,6.19
2023-03-29T08:30:54.753Z,6.34
2023-03-29T08:33:21.319Z,6.31
2023-03-29T08:35:47.873Z,6.33
2023-03-29T08:38:14.415Z,6.40
2023-03-29T08:40:40.960Z,6.46
2023-03-29T08:43:19.479Z,6.49
2023-03-29T08:45:58.046Z,6.52
2023-03-29T08:48:32.375Z,6.53
2023-03-29T08:51:20.724Z,6.49
2023-03-29T08:53:52.362Z,6.60
2023-03-29T08:56:24.026Z,6.63
2023-03-29T08:58:52.604Z,6.69
2023-03-29T09:01:21.693Z,6.75
2023-03-29T09:03:53.684Z,6.69
2023-03-29T09:06:21.162Z,6.70
2023-03-29T09:08:52.257Z,6.73
2023-03-29T09:11:38.963Z,6.74
2023-03-29T09:14:22.292Z,6.75
2023-03-29T09:17:26.315Z,6.65
2023-03-29T09:20:17.621Z,6.57
2023-03-29T09:23:09.393Z,6.57
2023-03-29T09:26:23.342Z,6.46
2023-03-29T09:29:09.696Z,6.47
2023-03-29T09:31:42.798Z,6.61
2023-03-29T09:34:16.926Z,6.59
2023-03-29T09:37:15.606Z,6.58
2023-03-29T09:39:42.072Z,6.57
2023-03-29T09:42:09.464Z,6.72
2023-03-29T09:44:42.703Z,6.73
2023-03-29T09:47:20.327Z,6.99
2023-03-29T09:49:52.666Z,7.06
2023-03-29T09:52:19.390Z,7.02
2023-03-29T09:54:45.862Z,7.10
2023-03-29T09:57:15.472Z,7.02
2023-03-29T09:59:42.821Z,7.03
2023-03-29T10:02:13.580Z,7.05
2023-03-29T10:04:41.669Z,7.09
2023-03-29T10:07:16.021Z,7.12
2023-03-29T10:09:45.513Z,7.11
2023-03-29T10:12:13.555Z,7.16
2023-03-29T10:14:42.546Z,7.27
2023-03-29T10:17:21.489Z,7.09
2023-03-29T10:19:55.537Z,7.05
2023-03-29T10:22:24.565Z,7.07
2023-03-29T10:24:53.265Z,7.04
2023-03-29T10:27:22.489Z,7.17
2023-03-29T10:29:50.810Z,7.18
2023-03-29T10:32:38.120Z,7.16
2023-03-29T10:35:28.412Z,7.32
2023-03-29T10:37:57.117Z,7.27
2023-03-29T10:40:29.156Z,7.35
2023-03-29T10:43:01.971Z,7.23
2023-03-29T10:45:34.951Z,7.36
2023-03-29T10:48:05.192Z,7.41
2023-03-29T10:50:35.031Z,7.43
2023-03-29T10:53:02.813Z,7.49
2023-03-29T10:55:36.845Z,7.43
2023-03-29T10:58:42.376Z,7.34
2023-03-29T11:01:26.892Z,7.36
2023-03-29T11:04:04.234Z,7.35
2023-03-29T11:07:12.036Z,7.41
2023-03-29T11:10:15.814Z,7.41
2023-03-29T11:12:56.870Z,7.41
2023-03-29T11:15:38.801Z,7.42
2023-03-29T11:19:02.505Z,7.48
2023-03-29T11:21:47.864Z,7.47
2023-03-29T11:24:14.296Z,7.50
2023-03-29T11:26:54.793Z,7.43
2023-03-29T11:29:54.869Z,7.49
2023-03-29T11:32:33.574Z,7.52
2023-03-29T11:35:18.652Z,7.58
2023-03-29T11:37:59.736Z,7.56
2023-03-29T11:40:50.585Z,7.54
2023-03-29T11:43:33.155Z,7.57
2023-03-29T11:46:31.860Z,7.61
2023-03-29T11:49:12.557Z,7.58
2023-03-29T11:51:49.387Z,7.57
2023-03-29T11:54:39.632Z,7.50
2023-03-29T11:57:22.634Z,7.55
2023-03-29T12:00:02.582Z,7.58
2023-03-29T12:02:37.502Z,7.53
2023-03-29T12:05:13.498Z,7.63
2023-03-29T12:07:50.739Z,7.50
2023-03-29T12:10:23.082Z,7.53
2023-03-29T12:13:01.927Z,7.56
2023-03-29T12:15:35.026Z,7.50
2023-03-29T12:18:30.376Z,7.48
2023-03-29T12:21:01.256Z,7.58
2023-03-29T12:23:32.761Z,7.68
2023-03-29T12:26:36.438Z,7.59
2023-03-29T12:29:21.806Z,7.65
2023-03-29T12:32:34.747Z,7.70
2023-03-29T12:35:32.545Z,7.75
2023-03-29T12:38:37.181Z,7.84
2023-03-29T12:41:15.754Z,7.87
2023-03-29T12:43:42.390Z,7.82
2023-03-29T12:46:40.871Z,7.90
2023-03-29T12:49:15.228Z,7.85
2023-03-29T12:51:43.037Z,7.82
2023-03-29T12:54:17.242Z,7.87
2023-03-29T12:56:52.672Z,7.89
2023-03-29T12:59:49.877Z,7.93
2023-03-29T13:02:16.509Z,7.85
2023-03-29T13:04:42.974Z,7.81
2023-03-29T13:07:27.400Z,7.78
2023-03-29T13:10:01.888Z,7.77
2023-03-29T13:12:34.462Z,7.78
2023-03-29T13:15:06.935Z,7.77
2023-03-29T13:17:56.895Z,7.85
2023-03-29T13:20:56.486Z,7.98
2023-03-29T13:23:45.958Z,8.00
2023-03-29T13:26:37.064Z,7.98
2023-03-29T13:29:30.605Z,8.04
2023-03-29T13:32:05.231Z,7.99
2023-03-29T13:34:53.004Z,8.01
2023-03-29T13:37:33.083Z,7.95
2023-03-29T13:39:59.969Z,7.93
2023-03-29T13:42:35.311Z,7.99
2023-03-29T13:45:25.937Z,8.13
2023-03-29T13:48:19.221Z,8.16
2023-03-29T13:50:57.710Z,8.33
2023-03-29T13:53:35.082Z,8.42
2023-03-29T13:56:02.322Z,8.53
2023-03-29T13:58:44.830Z,8.67
2023-03-29T14:01:27.260Z,8.90
2023-03-29T14:03:55.664Z,9.00
2023-03-29T14:06:33.040Z,9.00
2023-03-29T14:09:04.817Z,8.64
2023-03-29T14:11:31.940Z,8.59
2023-03-29T14:14:00.937Z,8.48
2023-03-29T14:16:31.227Z,8.43
2023-03-29T14:18:59.771Z,8.51
2023-03-29T14:21:26.385Z,8.60
2023-03-29T14:24:00.979Z,8.47
2023-03-29T14:26:34.715Z,8.37
2023-03-29T14:29:02.622Z,8.34
2023-03-29T14:31:36.088Z,8.45
2023-03-29T14:34:05.744Z,8.36
2023-03-29T14:36:34.194Z,8.32
2023-03-29T14:39:17.390Z,8.17
2023-03-29T14:41:52.678Z,8.20
2023-03-29T14:44:22.439Z,8.28
2023-03-29T14:46:49.269Z,8.26
2023-03-29T14:49:18.093Z,8.39
2023-03-29T14:51:46.372Z,8.36
2023-03-29T14:54:26.421Z,8.36
2023-03-29T14:56:54.104Z,8.48
2023-03-29T14:59:36.374Z,8.38
2023-03-29T15:02:04.095Z,8.48
2023-03-29T15:04:34.844Z,8.50
2023-03-29T15:07:03.076Z,8.52
2023-03-29T15:09:34.675Z,8.40
2023-03-29T15:12:02.938Z,8.46
2023-03-29T15:14:33.890Z,8.42
2023-03-29T15:17:47.753Z,8.45
2023-03-29T15:20:41.792Z,8.31
2023-03-29T15:23:08.210Z,8.19
2023-03-29T15:25:37.744Z,8.19
2023-03-29T15:28:04.996Z,8.14
2023-03-29T15:30:46.191Z,8.12
2023-03-29T15:33:21.694Z,8.09
2023-03-29T15:35:52.977Z,8.07
2023-03-29T15:38:23.335Z,8.13
2023-03-29T15:40:54.333Z,8.08
2023-03-29T15:43:20.853Z,8.10
2023-03-29T15:45:47.909Z,8.02
2023-03-29T15:48:23.793Z,8.03
2023-03-29T15:50:50.446Z,7.99
2023-03-29T15:53:19.595Z,7.96
2023-03-29T15:55:50.209Z,7.93
2023-03-29T15:58:20.415Z,7.95
2023-03-29T16:00:52.293Z,7.89
2023-03-29T16:03:19.124Z,7.82
2023-03-29T16:05:48.549Z,7.86
2023-03-29T16:08:15.155Z,7.90
2023-03-29T16:10:42.234Z,7.89
2023-03-29T16:13:12.263Z,7.87
2023-03-29T16:15:42.062Z,7.76
2023-03-29T16:18:09.502Z,7.74
2023-03-29T16:20:36.585Z,7.75
2023-03-29T16:23:03.210Z,7.74
2023-03-29T16:25:29.706Z,7.80
2023-03-29T16:27:56.215Z,7.79
2023-03-29T16:30:22.752Z,7.77
2023-03-29T16:32:49.394Z,7.75
2023-03-29T16:35:25.308Z,7.62
2023-03-29T16:37:51.770Z,7.63
2023-03-29T16:40:18.246Z,7.69
2023-03-29T16:42:44.809Z,7.76
2023-03-29T16:45:14.861Z,7.77
2023-03-29T16:47:43.070Z,7.69
2023-03-29T16:50:11.466Z,7.59
2023-03-29T16:52:37.967Z,7.58
2023-03-29T16:55:06.108Z,7.58
2023-03-29T16:57:32.725Z,7.52
2023-03-29T16:59:59.401Z,7.49
2023-03-29T17:02:25.898Z,7.59
2023-03-29T17:04:52.486Z,7.63
2023-03-29T17:07:19.034Z,7.65
2023-03-29T17:09:45.514Z,7.52
2023-03-29T17:12:12.380Z,7.53
2023-03-29T17:14:39.431Z,7.45
2023-03-29T17:17:05.909Z,7.50
2023-03-29T17:19:32.488Z,7.52
2023-03-29T17:21:59.366Z,7.54
2023-03-29T17:24:25.821Z,7.49
2023-03-29T17:26:52.277Z,7.48
2023-03-29T17:29:18.803Z,7.52
2023-03-29T17:31:45.325Z,7.58
2023-03-29T17:34:12.398Z,7.47
2023-03-29T17:36:38.885Z,7.54
2023-03-29T17:39:05.398Z,7.49
2023-03-29T17:41:31.903Z,7.40
2023-03-29T17:43:58.493Z,7.45
2023-03-29T17:46:24.993Z,7.34
2023-03-29T17:49:10.073Z,7.27
2023-03-29T17:51:36.566Z,7.29
2023-03-29T17:54:03.053Z,7.24
2023-03-29T17:56:29.587Z,7.20
2023-03-29T17:58:56.213Z,7.14
2023-03-29T18:01:22.838Z,7.13
2023-03-29T18:03:49.448Z,7.16
2023-03-29T18:06:17.784Z,7.11
2023-03-29T18:08:44.766Z,7.09
2023-03-29T18:11:20.238Z,7.04
2023-03-29T18:13:46.699Z,7.16
2023-03-29T18:16:14.160Z,7.01
2023-03-29T18:18:41.597Z,7.04
2023-03-29T18:21:08.212Z,7.03
2023-03-29T18:23:34.671Z,7.01
2023-03-29T18:26:03.654Z,7.04
2023-03-29T18:28:31.146Z,7.03
2023-03-29T18:30:58.275Z,7.03
2023-03-29T18:33:24.939Z,7.01
2023-03-29T18:35:51.973Z,6.99
2023-03-29T18:38:19.929Z,6.93
2023-03-29T18:40:48.471Z,6.90
2023-03-29T18:43:15.092Z,7.02
2023-03-29T18:45:43.293Z,7.04
2023-03-29T18:48:11.565Z,6.95
2023-03-29T18:50:38.106Z,7.00
2023-03-29T18:53:04.890Z,6.95
2023-03-29T18:55:31.479Z,6.92
2023-03-29T18:57:57.944Z,6.86
2023-03-29T19:00:24.510Z,6.86
2023-03-29T19:02:51.191Z,6.85
2023-03-29T19:05:17.869Z,6.86
2023-03-29T19:07:44.363Z,6.76
2023-03-29T19:10:11.009Z,6.73
2023-03-29T19:12:37.472Z,6.80
2023-03-29T19:15:05.251Z,6.79
2023-03-29T19:17:31.794Z,6.78
2023-03-29T19:19:58.265Z,6.81
2023-03-29T19:22:24.841Z,6.79
2023-03-29T19:24:51.599Z,6.81
2023-03-29T19:27:18.080Z,6.81
2023-03-29T19:29:44.580Z,6.75
2023-03-29T19:32:11.106Z,6.83
2023-03-29T19:34:37.592Z,6.85
2023-03-29T19:37:04.133Z,6.91
2023-03-29T19:39:30.721Z,6.91
2023-03-29T19:41:57.222Z,6.93
2023-03-29T19:44:23.772Z,6.92
2023-03-29T19:46:51.118Z,6.81
2023-03-29T19:49:17.646Z,6.77
2023-03-29T19:51:44.366Z,6.74
2023-03-29T19:54:11.056Z,6.70
2023-03-29T19:56:37.534Z,6.66
2023-03-29T19:59:04.028Z,6.61
2023-03-29T20:01:30.603Z,6.66
2023-03-29T20:03:57.189Z,6.63
2023-03-29T20:06:24.066Z,6.66
2023-03-29T20:08:50.609Z,6.63
2023-03-29T20:11:17.117Z,6.58
2023-03-29T20:13:45.244Z,6.56
2023-03-29T20:16:15.050Z,6.55
2023-03-29T20:18:42.100Z,6.56
2023-03-29T20:21:08.998Z,6.54
2023-03-29T20:23:36.056Z,6.51
2023-03-29T20:26:03.169Z,6.49
2023-03-29T20:28:29.691Z,6.50
2023-03-29T20:30:56.736Z,6.48
2023-03-29T20:33:23.268Z,6.46
2023-03-29T20:35:49.855Z,6.48
2023-03-29T20:38:16.830Z,6.49
2023-03-29T20:40:43.305Z,6.41
2023-03-29T20:43:09.798Z,6.44
2023-03-29T20:45:49.879Z,6.37
2023-03-29T20:48:18.910Z,6.33
2023-03-29T20:50:46.834Z,6.31
2023-03-29T20:53:13.718Z,6.25
2023-03-29T20:55:40.150Z,6.24
2023-03-29T20:58:06.680Z,6.24
2023-03-29T21:00:34.074Z,6.27
2023-03-29T21:03:00.964Z,6.23
2023-03-29T21:05:29.058Z,6.27
2023-03-29T21:07:55.584Z,6.27
2023-03-29T21:10:22.644Z,6.28
2023-03-29T21:12:49.878Z,6.30
2023-03-29T21:15:17.813Z,6.31
2023-03-29T21:17:44.900Z,6.33
2023-03-29T21:20:11.954Z,6.31
2023-03-29T21:22:39.304Z,6.35
2023-03-29T21:25:08.056Z,6.32
2023-03-29T21:27:35.366Z,6.24
2023-03-29T21:30:02.492Z,6.22
2023-03-29T21:32:29.031Z,6.18
2023-03-29T21:34:55.861Z,6.20
2023-03-29T21:37:22.385Z,6.17
2023-03-29T21:39:48.875Z,6.15
2023-03-29T21:42:15.612Z,6.16
2023-03-29T21:44:42.156Z,6.19
2023-03-29T21:47:08.904Z,6.17
2023-03-29T21:49:35.471Z,6.15
2023-03-29T21:52:02.085Z,6.15
2023-03-29T21:54:28.625Z,6.13
2023-03-29T21:56:55.921Z,6.09
2023-03-29T21:59:22.503Z,6.09
2023-03-29T22:01:49.102Z,6.08
2023-03-29T22:04:25.512Z,6.07
2023-03-29T22:06:59.973Z,6.01
2023-03-29T22:09:26.515Z,5.97
2023-03-29T22:11:53.198Z,5.97
2023-03-29T22:14:19.992Z,5.98
2023-03-29T22:16:46.613Z,5.98
2023-03-29T22:19:13.115Z,5.91
2023-03-29T22:21:39.592Z,5.96
2023-03-29T22:24:07.486Z,5.84
2023-03-29T22:26:33.954Z,5.82
2023-03-29T22:29:01.732Z,5.82
2023-03-29T22:31:29.659Z,5.85
2023-03-29T22:33:56.287Z,5.82
2023-03-29T22:36:29.115Z,5.79
2023-03-29T22:38:56.436Z,5.81
2023-03-29T22:41:25.257Z,5.84
2023-03-29T22:43:52.743Z,5.84
2023-03-29T22:46:21.011Z,5.81
2023-03-29T22:48:47.787Z,5.82
2023-03-29T22:51:14.979Z,5.82
2023-03-29T22:53:41.951Z,5.83
2023-03-29T22:56:08.822Z,5.78
2023-03-29T22:58:36.860Z,5.76
2023-03-29T23:01:04.269Z,5.68
2023-03-29T23:03:31.140Z,5.70
2023-03-29T23:05:59.148Z,5.62
2023-03-29T23:08:26.977Z,5.58
2023-03-29T23:10:53.464Z,5.60
2023-03-29T23:13:20.168Z,5.58
2023-03-29T23:15:48.649Z,5.59
2023-03-29T23:18:16.073Z,5.58
2023-03-29T23:20:42.604Z,5.59
2023-03-29T23:23:09.475Z,5.59
2023-03-29T23:25:36.324Z,5.58
2023-03-29T23:28:03.192Z,5.49
2023-03-29T23:30:30.573Z,5.48
2023-03-29T23:32:57.030Z,5.48
2023-03-29T23:35:24.295Z,5.51
2023-03-29T23:37:50.901Z,5.50
2023-03-29T23:40:17.405Z,5.52
2023-03-29T23:42:45.762Z,5.49
2023-03-29T23:45:15.138Z,5.42
2023-03-29T23:47:42.608Z,5.41
2023-03-29T23:50:11.058Z,5.41
2023-03-29T23:52:38.135Z,5.38
2023-03-29T23:55:05.032Z,5.43
2023-03-29T23:57:31.499Z,5.40
2023-03-29T23:59:57.967Z,5.38
